KHDN/HDN METAR and TAF weather

Enter ICAO airport designator
Station Type Date Time Source
KHDN METAR 2020/09/24 10:56 UTC NOAA

KHDN 241056Z AUTO 10011KT 10SM CLR 08/M03 A3028 RMK AO2 SLP188 T00831028


Station Type Date Time Source
KHDN Decoded METAR 2020/09/24 10:56 UTC NOAA

Hayden, Yampa Valley Airport, CO, United States (KHDN) 40-29N 107-13W
Sep 24, 2020 - 06:56 AM EDT / 2020.09.24 1056 UTC
Wind: from the E (100 degrees) at 13 MPH (11 KT):0
Visibility: 10 mile(s):0
Sky conditions: clear
Temperature: 46.9 F (8.3 C)
Dew Point: 27.0 F (-2.8 C)
Relative Humidity: 45%
Pressure (altimeter): 30.28 in. Hg (1025 hPa)
ob: KHDN 241056Z AUTO 10011KT 10SM CLR 08/M03 A3028 RMK AO2 SLP188 T00831028
cycle: 11

Station Type Date Time Source
KHDN TAF 2020/09/24 12:22 UTC NOAA

TAF KHDN 241120Z 2412/2512 12011KT P6SM SCT250
FM241700 26008KT P6SM SCT250
FM241900 26013G22KT P6SM SKC
FM250200 22008KT P6SM SKC
FM250700 11006KT P6SM SKC

Example: see airport list